Time;durP1;ratioP1;P1;durP2;ratioP2;P2;SDS_P1;SDS_P2;PMS_P1;PMS_P2;Temp;Humidity;BMP_temperature;BMP_pressure;BME280_temperature;BME280_humidity;BME280_pressure;Samples;Min_cycle;Max_cycle;Signal;HPM_P1;HPM_P2
2022/01/20 00:02:05;;;;;;;;;1.00;1.00;;;;;4.31;88.36;100473.97;5115314;28;8832;-62
2022/01/20 00:04:42;;;;;;;;;0.00;0.00;;;;;4.31;88.75;100471.34;5115187;28;8851;-62
2022/01/20 00:07:35;;;;;;;;;1.40;1.40;;;;;4.28;88.37;100464.41;5114381;28;8828;-62
2022/01/20 00:26:45;;;;;;;;;1.60;1.60;;;;;4.08;88.73;100469.75;5108406;27;8875;-64
2022/01/20 00:29:21;;;;;;;;;0.60;0.00;;;;;4.07;88.64;100472.44;5134621;27;8850;-64
2022/01/20 00:32:03;;;;;;;;;2.20;2.20;;;;;4.06;88.78;100473.38;5127287;27;8829;-61
2022/01/20 00:34:53;;;;;;;;;1.00;0.80;;;;;4.05;88.27;100476.94;5122177;28;8975;-64
2022/01/20 00:37:19;;;;;;;;;0.60;0.40;;;;;4.06;88.89;100468.09;5109646;28;8836;-62
2022/01/20 00:39:47;;;;;;;;;0.20;0.20;;;;;4.06;88.56;100474.25;5108220;28;8824;-62
2022/01/20 00:42:15;;;;;;;;;1.40;1.40;;;;;4.07;88.74;100473.31;5108412;28;8901;-62
2022/01/20 00:44:43;;;;;;;;;3.00;1.00;;;;;4.08;88.64;100472.38;5108201;28;8967;-63
2022/01/20 00:47:11;;;;;;;;;6.00;3.20;;;;;4.07;88.60;100475.97;5107473;28;8843;-63
2022/01/20 00:49:38;;;;;;;;;0.00;0.00;;;;;4.07;88.79;100475.09;5108322;28;8839;-63
2022/01/20 00:52:06;;;;;;;;;1.00;1.00;;;;;4.06;88.21;100481.28;5107577;28;8848;-61
2022/01/20 00:54:34;;;;;;;;;1.80;1.80;;;;;4.05;88.33;100487.47;5108103;28;8885;-63
2022/01/20 00:57:03;;;;;;;;;2.60;1.80;;;;;4.03;88.78;100494.59;5108311;28;8874;-63
2022/01/20 00:59:30;;;;;;;;;2.40;1.80;;;;;4.00;88.58;100495.59;5109863;28;8868;-62
2022/01/20 01:01:58;;;;;;;;;1.00;1.00;;;;;3.99;88.61;100493.00;5108005;28;8856;-63
2022/01/20 01:04:27;;;;;;;;;0.00;0.00;;;;;3.98;88.55;100486.88;5122024;27;8860;-63
2022/01/20 01:07:17;;;;;;;;;0.00;0.00;;;;;3.96;88.79;100480.81;5129369;27;8834;-61
2022/01/20 01:09:45;;;;;;;;;0.60;0.60;;;;;3.97;88.80;100484.34;5127860;27;8968;-63
2022/01/20 01:12:18;;;;;;;;;3.40;3.00;;;;;3.98;88.65;100478.13;5128454;27;8833;-63
2022/01/20 01:14:50;;;;;;;;;0.00;0.00;;;;;3.99;89.09;100470.19;5127388;27;8972;-64
2022/01/20 01:20:15;;;;;;;;;0.00;0.00;;;;;4.05;88.38;100459.34;5127801;27;8865;-63
2022/01/20 01:22:43;;;;;;;;;4.40;3.20;;;;;4.11;88.73;100476.69;5131347;27;8860;-62
2022/01/20 01:25:11;;;;;;;;;0.40;0.40;;;;;4.16;88.27;100464.13;5129748;27;8842;-62
2022/01/20 01:27:41;;;;;;;;;2.60;1.00;;;;;4.22;88.04;100469.13;5129745;27;8860;-62
2022/01/20 01:30:19;;;;;;;;;0.00;0.00;;;;;4.25;87.84;100464.56;5130813;27;8996;-63
2022/01/20 01:32:50;;;;;;;;;1.00;1.00;;;;;4.29;87.85;100466.16;5132046;27;8833;-63
2022/01/20 01:35:19;;;;;;;;;3.60;3.00;;;;;4.32;87.65;100458.09;5111729;27;8844;-63
2022/01/20 01:40:33;;;;;;;;;0.00;0.00;;;;;4.39;87.51;100471.84;5110585;28;8909;-63
2022/01/20 01:43:02;;;;;;;;;1.00;1.00;;;;;4.41;87.61;100464.72;5110282;28;8847;-62
2022/01/20 01:45:30;;;;;;;;;1.80;1.80;;;;;4.44;87.69;100461.94;5111468;28;8844;-63
2022/01/20 01:47:58;;;;;;;;;1.00;1.00;;;;;4.44;87.76;100469.84;5109797;28;8844;-63
2022/01/20 01:50:26;;;;;;;;;0.00;0.00;;;;;4.45;87.91;100468.91;5109309;28;8851;-63
2022/01/20 01:52:53;;;;;;;;;0.00;0.00;;;;;4.47;87.58;100464.44;5108631;28;8851;-63
2022/01/20 01:55:21;;;;;;;;;2.20;2.20;;;;;4.49;87.77;100466.06;5110733;28;8848;-63
2022/01/20 01:57:49;;;;;;;;;0.40;0.20;;;;;4.53;87.83;100466.78;5110464;28;8836;-62
2022/01/20 02:00:17;;;;;;;;;0.80;0.00;;;;;4.55;87.29;100468.44;5111162;28;8866;-63
2022/01/20 02:02:44;;;;;;;;;1.00;1.00;;;;;4.58;87.38;100468.25;5109205;28;8859;-63
2022/01/20 02:05:13;;;;;;;;;1.80;1.80;;;;;4.60;87.16;100477.00;5131527;27;8934;-61
2022/01/20 02:08:14;;;;;;;;;1.00;1.00;;;;;4.64;87.77;100473.25;5130963;27;8845;-63
2022/01/20 02:19:00;;;;;;;;;0.80;0.80;;;;;4.73;87.62;100467.53;5132121;27;8957;-62
2022/01/20 02:21:28;;;;;;;;;0.00;0.00;;;;;4.75;87.07;100460.44;5131616;27;9948;-61
2022/01/20 02:23:56;;;;;;;;;1.80;1.80;;;;;4.75;87.52;100465.72;5131190;27;8853;-62
2022/01/20 02:26:24;;;;;;;;;1.40;1.20;;;;;4.78;87.61;100470.00;5131560;27;8842;-63
2022/01/20 02:28:51;;;;;;;;;1.60;1.60;;;;;4.78;87.16;100454.16;5124536;27;8866;-64
2022/01/20 02:31:19;;;;;;;;;1.80;1.00;;;;;4.81;86.91;100461.91;5110056;28;8839;-62
2022/01/20 02:33:47;;;;;;;;;3.00;3.00;;;;;4.83;87.13;100454.78;5109509;28;8848;-63
2022/01/20 02:36:17;;;;;;;;;3.00;2.60;;;;;4.83;86.97;100447.72;5111004;28;8832;-64
2022/01/20 02:38:48;;;;;;;;;0.40;0.40;;;;;4.85;87.40;100450.28;5109859;28;9505;-63
2022/01/20 02:46:47;;;;;;;;;3.00;2.60;;;;;4.86;86.96;100465.19;5110475;28;8852;-62
2022/01/20 02:49:14;;;;;;;;;1.00;1.00;;;;;4.85;87.53;100445.00;5109865;28;9868;-63
2022/01/20 02:51:42;;;;;;;;;0.20;0.00;;;;;4.86;87.26;100444.09;5108734;28;8943;-62
2022/01/20 02:54:10;;;;;;;;;1.40;1.00;;;;;4.88;86.91;100447.50;5110987;28;8850;-62
2022/01/20 02:56:38;;;;;;;;;0.20;0.00;;;;;4.88;86.75;100434.31;5108002;28;9516;-63
2022/01/20 02:59:06;;;;;;;;;0.00;0.00;;;;;4.87;87.12;100451.09;5117713;27;8850;-64
2022/01/20 03:01:33;;;;;;;;;3.00;3.00;;;;;4.86;87.24;100446.72;5115205;27;9795;-64
2022/01/20 03:04:02;;;;;;;;;1.00;1.00;;;;;4.86;87.10;100452.00;5107769;28;8982;-64
2022/01/20 03:06:31;;;;;;;;;1.00;1.00;;;;;4.86;86.93;100444.09;5107717;28;8882;-64
2022/01/20 03:08:58;;;;;;;;;4.00;3.00;;;;;4.85;87.16;100439.72;5107427;27;8874;-64
2022/01/20 03:11:26;;;;;;;;;2.80;2.80;;;;;4.83;86.99;100437.19;5108041;28;8958;-64
2022/01/20 03:13:53;;;;;;;;;0.00;0.00;;;;;4.82;87.21;100440.75;5109205;28;8860;-64
2022/01/20 03:16:21;;;;;;;;;0.60;0.60;;;;;4.80;87.26;100444.38;5107806;28;8839;-64
2022/01/20 03:18:49;;;;;;;;;0.00;0.00;;;;;4.80;86.57;100437.31;5108721;28;8879;-64
2022/01/20 03:21:17;;;;;;;;;0.00;0.00;;;;;4.78;87.04;100439.19;5108370;28;8847;-64
2022/01/20 03:23:45;;;;;;;;;1.80;1.80;;;;;4.78;86.94;100444.44;5107323;28;8839;-64
2022/01/20 03:26:13;;;;;;;;;1.00;1.00;;;;;4.76;87.07;100438.41;5108493;28;8886;-64
2022/01/20 03:28:41;;;;;;;;;1.00;1.00;;;;;4.78;86.79;100448.88;5113382;27;8838;-64
2022/01/20 03:31:09;;;;;;;;;1.00;1.00;;;;;4.79;86.68;100440.03;5129296;27;8863;-64
2022/01/20 03:33:36;;;;;;;;;1.00;0.20;;;;;4.78;87.23;100438.34;5129977;27;8856;-62
2022/01/20 03:36:04;;;;;;;;;0.00;0.00;;;;;4.78;87.31;100425.16;5129154;27;8854;-62
2022/01/20 03:38:32;;;;;;;;;1.00;0.00;;;;;4.75;86.76;100427.91;5128791;27;8846;-63
2022/01/20 03:40:59;;;;;;;;;0.00;0.00;;;;;4.69;86.91;100439.63;5129777;27;8954;-64
2022/01/20 03:43:27;;;;;;;;;0.20;0.20;;;;;4.66;86.91;100423.09;5128870;27;9538;-64
2022/01/20 03:45:57;;;;;;;;;0.00;0.00;;;;;4.58;86.94;100420.81;5128744;27;8846;-64
2022/01/20 03:48:27;;;;;;;;;0.00;0.00;;;;;4.50;87.08;100422.94;5126793;27;8845;-64
2022/01/20 03:51:01;;;;;;;;;0.00;0.00;;;;;4.45;87.51;100421.47;5129033;27;8909;-64
2022/01/20 03:53:29;;;;;;;;;3.60;3.00;;;;;4.44;87.44;100419.75;5128634;27;8868;-64
2022/01/20 03:55:56;;;;;;;;;0.40;0.40;;;;;4.42;87.28;100413.72;5130022;27;8864;-63
2022/01/20 03:58:24;;;;;;;;;0.60;0.60;;;;;4.41;87.16;100438.38;5126560;27;8845;-63
2022/01/20 04:00:52;;;;;;;;;1.40;0.60;;;;;4.40;87.77;100431.41;5108911;28;8872;-63
2022/01/20 04:03:19;;;;;;;;;0.00;0.00;;;;;4.40;87.65;100424.31;5108340;28;8847;-64
2022/01/20 04:05:56;;;;;;;;;0.40;0.00;;;;;4.41;87.81;100426.03;5107935;28;8855;-64
2022/01/20 04:08:24;;;;;;;;;0.80;0.80;;;;;4.45;87.54;100429.38;5106942;28;8921;-64
2022/01/20 04:10:52;;;;;;;;;0.40;0.00;;;;;4.46;87.50;100431.09;5106969;28;8862;-63
2022/01/20 04:13:19;;;;;;;;;0.00;0.00;;;;;4.45;87.19;100429.38;5108645;28;8839;-61
2022/01/20 04:15:48;;;;;;;;;1.00;0.00;;;;;4.40;87.42;100428.75;5109098;28;8832;-63
2022/01/20 04:18:21;;;;;;;;;1.00;1.00;;;;;4.36;87.55;100422.78;5108306;28;8840;-64
2022/01/20 04:20:49;;;;;;;;;1.00;1.00;;;;;4.30;87.54;100430.09;5108441;28;8866;-64
2022/01/20 04:23:17;;;;;;;;;0.00;0.00;;;;;4.23;87.61;100429.53;5108207;28;8858;-62
2022/01/20 04:25:44;;;;;;;;;1.00;1.00;;;;;4.21;87.56;100439.31;5107331;28;8842;-62
2022/01/20 04:28:12;;;;;;;;;0.00;0.00;;;;;4.25;87.86;100437.38;5107360;27;8848;-64
2022/01/20 04:30:40;;;;;;;;;0.20;0.00;;;;;4.29;87.79;100428.38;5129217;27;8846;-64
2022/01/20 04:33:07;;;;;;;;;0.00;0.00;;;;;4.32;87.60;100428.22;5128665;27;8853;-63
2022/01/20 04:35:35;;;;;;;;;0.60;0.00;;;;;4.36;87.08;100435.09;5128818;27;8838;-63
2022/01/20 04:38:03;;;;;;;;;0.20;0.20;;;;;4.35;87.44;100439.50;5127620;27;8852;-63
2022/01/20 04:40:37;;;;;;;;;1.00;0.80;;;;;4.35;87.29;100442.13;5127909;27;9983;-67
2022/01/20 04:43:05;;;;;;;;;0.40;0.40;;;;;4.37;87.00;100434.16;5127347;27;8871;-61
2022/01/20 04:45:38;;;;;;;;;1.00;1.00;;;;;4.40;87.12;100441.94;5128115;27;8842;-64
2022/01/20 04:48:18;;;;;;;;;3.00;1.00;;;;;4.44;86.80;100438.22;5128539;27;8845;-63
2022/01/20 04:59:03;;;;;;;;;1.40;1.00;;;;;4.41;87.18;100443.66;5125319;27;8867;-64
2022/01/20 05:01:31;;;;;;;;;5.20;3.60;;;;;4.41;86.90;100444.47;5111363;28;8882;-62
2022/01/20 05:04:01;;;;;;;;;2.80;2.40;;;;;4.40;87.04;100449.84;5111199;28;8848;-64
2022/01/20 05:06:29;;;;;;;;;1.00;1.00;;;;;4.41;87.46;100454.19;5110698;28;8836;-63
2022/01/20 05:08:57;;;;;;;;;0.00;0.00;;;;;4.40;87.18;100448.06;5110467;28;8848;-63
2022/01/20 05:11:24;;;;;;;;;1.00;1.00;;;;;4.39;87.08;100456.88;5111067;28;8863;-64
2022/01/20 05:13:52;;;;;;;;;1.00;1.00;;;;;4.36;87.23;100458.81;5109516;28;9512;-64
2022/01/20 05:16:23;;;;;;;;;1.00;1.00;;;;;4.33;87.29;100459.81;5111241;28;8874;-64
2022/01/20 05:18:51;;;;;;;;;0.00;0.00;;;;;4.29;86.81;100455.63;5113110;28;8856;-64
2022/01/20 05:21:19;;;;;;;;;1.40;0.80;;;;;4.26;87.24;100453.09;5112279;28;8862;-66
2022/01/20 05:23:47;;;;;;;;;1.00;1.00;;;;;4.24;87.35;100462.00;5108731;28;8847;-62
2022/01/20 05:26:14;;;;;;;;;0.80;0.80;;;;;4.22;87.29;100466.50;5110635;28;9552;-64
2022/01/20 05:28:45;;;;;;;;;1.00;1.00;;;;;4.19;87.58;100462.22;5115795;27;8886;-61
2022/01/20 05:31:13;;;;;;;;;0.80;0.80;;;;;4.21;87.20;100472.69;5131339;27;9728;-64
2022/01/20 05:33:41;;;;;;;;;1.00;1.00;;;;;4.20;87.44;100452.53;5129474;27;8834;-63
2022/01/20 05:36:09;;;;;;;;;1.00;1.00;;;;;4.20;87.73;100474.47;5129855;27;8849;-63
2022/01/20 05:38:36;;;;;;;;;1.00;1.00;;;;;4.20;87.34;100471.81;5129941;27;8853;-64
2022/01/20 05:41:04;;;;;;;;;0.00;0.00;;;;;4.20;87.32;100473.63;5131031;27;9718;-65
2022/01/20 05:43:32;;;;;;;;;3.00;3.00;;;;;4.18;87.04;100486.03;5129842;27;8868;-66
2022/01/20 05:46:02;;;;;;;;;1.00;1.00;;;;;4.16;87.35;100472.91;5129030;27;8842;-68
2022/01/20 05:48:34;;;;;;;;;1.00;1.00;;;;;4.14;87.31;100485.31;5127827;27;8829;-65
2022/01/20 05:51:02;;;;;;;;;2.20;1.00;;;;;4.14;87.72;100492.34;5120854;27;8848;-65
2022/01/20 05:53:30;;;;;;;;;1.00;0.40;;;;;4.13;87.76;100509.06;5108379;28;8898;-65
2022/01/20 05:55:57;;;;;;;;;1.00;1.00;;;;;4.13;87.85;100502.00;5108948;28;8855;-64
2022/01/20 05:58:25;;;;;;;;;1.00;1.00;;;;;4.13;87.15;100516.97;5108425;28;8890;-65
2022/01/20 06:00:53;;;;;;;;;0.00;0.00;;;;;4.12;87.78;100525.81;5108955;28;8851;-64
2022/01/20 06:03:39;;;;;;;;;0.00;0.00;;;;;4.09;87.22;100524.16;5107847;28;8882;-66
2022/01/20 06:06:08;;;;;;;;;0.00;0.00;;;;;4.10;87.54;100538.22;5106408;28;9925;-64
2022/01/20 06:08:35;;;;;;;;;0.00;0.00;;;;;4.08;87.32;100537.38;5106190;28;8860;-64
2022/01/20 06:11:03;;;;;;;;;0.00;0.00;;;;;4.07;87.74;100540.97;5108230;28;8855;-66
2022/01/20 06:13:31;;;;;;;;;0.00;0.00;;;;;4.02;87.32;100542.91;5103357;28;8859;-63
2022/01/20 06:15:59;;;;;;;;;0.20;0.20;;;;;3.96;87.77;100545.84;5102343;28;8995;-63
2022/01/20 06:18:27;;;;;;;;;0.00;0.00;;;;;3.91;87.44;100537.28;5101012;28;8840;-64
2022/01/20 06:20:55;;;;;;;;;0.00;0.00;;;;;3.87;87.85;100543.59;5099088;28;9469;-63
2022/01/20 06:23:22;;;;;;;;;1.00;0.00;;;;;3.86;87.45;100552.41;5099544;28;8940;-62
2022/01/20 06:25:50;;;;;;;;;0.60;0.60;;;;;3.85;87.76;100562.09;5095523;28;8847;-63
2022/01/20 06:28:18;;;;;;;;;0.00;0.00;;;;;3.86;87.51;100573.47;5096672;28;8852;-63
2022/01/20 06:30:46;;;;;;;;;0.00;0.00;;;;;3.88;87.91;100580.41;5098993;28;8847;-64
2022/01/20 06:33:14;;;;;;;;;0.00;0.00;;;;;3.91;87.57;100592.59;5095365;28;8863;-64
2022/01/20 06:35:42;;;;;;;;;0.60;0.60;;;;;3.91;87.56;100590.84;5096922;28;9124;-65
2022/01/20 06:38:09;;;;;;;;;0.00;0.00;;;;;3.89;87.46;100600.56;5099557;28;8874;-65
2022/01/20 06:40:37;;;;;;;;;0.00;0.00;;;;;3.84;87.73;100606.94;5099505;28;8866;-63
2022/01/20 06:43:05;;;;;;;;;0.00;0.00;;;;;3.78;87.67;100608.97;5100228;28;8864;-64
2022/01/20 06:45:33;;;;;;;;;0.00;0.00;;;;;3.69;87.70;100620.75;5099995;28;8852;-62
2022/01/20 06:48:01;;;;;;;;;0.00;0.00;;;;;3.63;87.58;100630.69;5099842;28;8861;-64
2022/01/20 06:50:29;;;;;;;;;0.00;0.00;;;;;3.57;87.92;100637.03;5097298;28;9526;-65
2022/01/20 06:52:57;;;;;;;;;0.00;0.00;;;;;3.53;87.52;100647.75;5097287;28;8848;-65
2022/01/20 06:55:24;;;;;;;;;0.00;0.00;;;;;3.47;88.02;100650.63;5096174;28;8944;-64
2022/01/20 06:57:52;;;;;;;;;0.00;0.00;;;;;3.41;87.59;100646.44;5094335;28;8856;-65
2022/01/20 07:00:20;;;;;;;;;0.00;0.00;;;;;3.36;88.22;100643.16;5093326;28;8848;-64
2022/01/20 07:02:47;;;;;;;;;0.00;0.00;;;;;3.30;87.61;100653.06;5094233;28;8859;-63
2022/01/20 07:05:15;;;;;;;;;0.00;0.00;;;;;3.23;87.37;100652.44;5093798;28;8886;-62
2022/01/20 07:07:43;;;;;;;;;0.00;0.00;;;;;3.20;87.83;100660.47;5096563;28;8871;-64
2022/01/20 07:10:11;;;;;;;;;0.00;0.00;;;;;3.17;87.63;100663.19;5092461;28;8873;-68
2022/01/20 07:12:39;;;;;;;;;0.00;0.00;;;;;3.14;87.82;100672.97;5095414;28;9206;-63
2022/01/20 07:15:11;;;;;;;;;0.00;0.00;;;;;3.12;87.63;100677.44;5095985;28;9826;-63
2022/01/20 07:17:38;;;;;;;;;0.00;0.00;;;;;3.11;88.39;100694.16;5090656;28;8859;-64
2022/01/20 07:20:06;;;;;;;;;0.00;0.00;;;;;3.10;88.19;100698.53;5089785;28;8909;-63
2022/01/20 07:22:34;;;;;;;;;0.00;0.00;;;;;3.11;88.53;100695.00;5097025;28;8835;-64
2022/01/20 07:25:01;;;;;;;;;0.00;0.00;;;;;3.12;88.47;100706.38;5101288;27;8848;-64
2022/01/20 07:27:29;;;;;;;;;0.60;0.60;;;;;3.12;88.30;100701.13;5116847;27;8838;-65
2022/01/20 07:29:57;;;;;;;;;0.00;0.00;;;;;3.11;88.25;100710.78;5115042;27;9127;-63
2022/01/20 07:32:25;;;;;;;;;1.00;1.00;;;;;3.12;87.76;100714.28;5113963;27;8857;-63
2022/01/20 07:34:53;;;;;;;;;0.00;0.00;;;;;3.14;88.42;100704.53;5116231;27;8861;-64
2022/01/20 07:37:20;;;;;;;;;1.00;1.00;;;;;3.14;88.39;100697.53;5115294;27;8834;-64
2022/01/20 07:39:48;;;;;;;;;0.00;0.00;;;;;3.13;88.01;100693.19;5115896;27;8871;-64
2022/01/20 07:42:16;;;;;;;;;0.00;0.00;;;;;3.10;87.49;100701.16;5114955;27;9162;-65
2022/01/20 07:44:43;;;;;;;;;0.00;0.00;;;;;3.07;88.29;100706.56;5116588;27;8865;-63
2022/01/20 07:47:11;;;;;;;;;0.00;0.00;;;;;3.05;87.75;100720.69;5116621;27;8969;-62
2022/01/20 07:49:39;;;;;;;;;0.00;0.00;;;;;3.01;88.22;100717.31;5115212;27;9106;-62
2022/01/20 07:52:07;;;;;;;;;0.00;0.00;;;;;3.01;87.92;100725.19;5113860;27;9876;-64
2022/01/20 07:54:34;;;;;;;;;0.60;0.60;;;;;3.01;87.88;100730.44;5115760;27;8838;-63
2022/01/20 07:57:04;;;;;;;;;0.80;0.20;;;;;3.03;88.49;100739.13;5112443;27;8972;-63
2022/01/20 07:59:32;;;;;;;;;1.00;0.00;;;;;3.04;87.81;100746.13;5115439;27;8873;-63
2022/01/20 08:02:00;;;;;;;;;0.00;0.00;;;;;3.10;88.28;100755.56;5114602;27;8875;-63
2022/01/20 08:04:28;;;;;;;;;0.00;0.00;;;;;3.18;88.35;100748.25;5116006;27;8862;-64
2022/01/20 08:06:55;;;;;;;;;0.00;0.00;;;;;3.29;87.69;100740.81;5114378;27;8983;-62
2022/01/20 08:09:24;;;;;;;;;0.40;0.00;;;;;3.37;87.95;100750.16;5112818;27;9276;-63
2022/01/20 08:12:14;;;;;;;;;0.00;0.00;;;;;3.40;86.78;100751.81;5111330;27;8903;-63
2022/01/20 08:14:41;;;;;;;;;0.00;0.00;;;;;3.35;87.12;100745.84;5116512;27;8921;-63
2022/01/20 08:17:09;;;;;;;;;0.00;0.00;;;;;3.26;87.33;100747.03;5110783;27;9303;-63
2022/01/20 08:19:37;;;;;;;;;0.00;0.00;;;;;3.18;87.01;100754.38;5114545;27;8873;-62
2022/01/20 08:22:04;;;;;;;;;0.00;0.00;;;;;3.10;87.29;100751.16;5112463;27;8853;-62
2022/01/20 08:24:52;;;;;;;;;0.00;0.00;;;;;3.03;87.53;100760.19;5109922;27;8864;-63
2022/01/20 08:27:20;;;;;;;;;0.00;0.00;;;;;2.96;87.71;100761.31;5110937;27;8841;-63
2022/01/20 08:29:48;;;;;;;;;0.00;0.00;;;;;2.92;87.09;100766.75;5109457;27;8861;-63
2022/01/20 08:32:16;;;;;;;;;0.00;0.00;;;;;2.88;87.70;100771.25;5117691;27;8893;-64
2022/01/20 08:34:45;;;;;;;;;0.00;0.00;;;;;2.87;88.13;100769.53;5117552;27;8984;-62
2022/01/20 08:37:13;;;;;;;;;0.00;0.00;;;;;2.89;87.62;100758.97;5117788;27;8977;-63
2022/01/20 08:39:44;;;;;;;;;0.80;0.80;;;;;2.94;87.65;100771.03;5118630;27;9290;-64
2022/01/20 08:42:12;;;;;;;;;0.00;0.00;;;;;3.05;87.33;100758.38;5117210;27;8860;-63
2022/01/20 08:44:40;;;;;;;;;0.60;0.60;;;;;3.27;87.47;100758.44;5119942;27;9091;-62
2022/01/20 08:47:13;;;;;;;;;0.40;0.40;;;;;3.57;86.54;100766.03;5115875;27;9550;-65
2022/01/20 08:49:41;;;;;;;;;0.00;0.00;;;;;3.81;86.49;100762.47;5118638;27;8879;-63
2022/01/20 08:52:09;;;;;;;;;0.00;0.00;;;;;3.95;85.60;100760.16;5116166;27;8850;-63
2022/01/20 08:54:37;;;;;;;;;0.00;0.00;;;;;4.04;85.60;100759.78;5117471;27;8837;-65
2022/01/20 08:57:05;;;;;;;;;1.00;0.80;;;;;4.08;85.35;100764.88;5115351;27;8854;-64
2022/01/20 08:59:33;;;;;;;;;0.00;0.00;;;;;4.07;85.61;100764.91;5117197;27;9396;-63
2022/01/20 09:02:01;;;;;;;;;0.00;0.00;;;;;4.02;85.36;100766.88;5118507;27;9281;-62
2022/01/20 09:04:30;;;;;;;;;1.00;0.00;;;;;3.98;85.06;100781.94;5118554;27;9498;-65
2022/01/20 09:06:57;;;;;;;;;0.00;0.00;;;;;3.95;85.59;100776.81;5117606;27;8900;-62
2022/01/20 09:09:25;;;;;;;;;0.00;0.00;;;;;3.96;85.13;100788.22;5120085;27;8868;-65
2022/01/20 09:12:05;;;;;;;;;0.00;0.00;;;;;4.01;85.19;100796.78;5117564;27;8861;-63
2022/01/20 09:17:18;;;;;;;;;0.00;0.00;;;;;4.14;85.11;100792.75;5116132;27;8912;-65
2022/01/20 09:19:46;;;;;;;;;1.00;1.00;;;;;4.13;85.01;100802.41;5116404;27;8868;-62
2022/01/20 09:22:14;;;;;;;;;0.00;0.00;;;;;4.10;84.69;100804.34;5117728;27;9187;-63
2022/01/20 09:24:42;;;;;;;;;0.00;0.00;;;;;4.05;85.14;100814.19;5120033;27;9494;-64
2022/01/20 09:27:09;;;;;;;;;1.00;1.00;;;;;3.97;85.43;100808.38;5119182;27;8846;-64
2022/01/20 09:29:37;;;;;;;;;0.00;0.00;;;;;3.85;85.30;100804.44;5118201;27;9574;-64
2022/01/20 09:32:07;;;;;;;;;0.00;0.00;;;;;3.76;85.34;100803.91;5119926;27;8937;-62
2022/01/20 09:34:34;;;;;;;;;0.00;0.00;;;;;3.72;85.12;100804.09;5118990;27;8833;-62
2022/01/20 09:37:02;;;;;;;;;0.00;0.00;;;;;3.70;85.67;100800.69;5122525;27;8849;-62
2022/01/20 09:39:31;;;;;;;;;0.00;0.00;;;;;3.69;85.61;100802.44;5118893;27;8849;-64
2022/01/20 09:42:00;;;;;;;;;1.00;1.00;;;;;3.71;85.64;100813.75;5120522;27;8853;-64
2022/01/20 09:44:28;;;;;;;;;0.00;0.00;;;;;3.80;85.37;100813.44;5119073;27;8930;-65
2022/01/20 09:46:57;;;;;;;;;0.00;0.00;;;;;3.94;85.24;100817.25;5119913;27;9612;-65
2022/01/20 09:49:25;;;;;;;;;0.20;0.20;;;;;4.10;85.47;100820.16;5116220;27;8861;-61
2022/01/20 09:51:53;;;;;;;;;0.00;0.00;;;;;4.22;84.46;100817.00;5119057;27;8864;-62
2022/01/20 09:54:22;;;;;;;;;0.00;0.00;;;;;4.22;84.30;100827.56;5118854;27;8849;-62
2022/01/20 09:56:50;;;;;;;;;0.00;0.00;;;;;4.16;84.55;100828.66;5117574;27;8872;-64
2022/01/20 09:59:18;;;;;;;;;0.60;0.60;;;;;4.07;83.90;100822.88;5122664;27;8881;-64
2022/01/20 10:01:45;;;;;;;;;0.00;0.00;;;;;4.10;84.12;100828.91;5124637;27;8848;-64
2022/01/20 10:04:14;;;;;;;;;0.00;0.00;;;;;4.12;84.73;100829.69;5124575;27;8845;-64
2022/01/20 10:06:45;;;;;;;;;0.00;0.00;;;;;4.16;84.67;100838.31;5125204;27;8914;-65
2022/01/20 10:09:18;;;;;;;;;0.00;0.00;;;;;4.33;84.07;100830.63;5125137;27;8861;-63
2022/01/20 10:11:46;;;;;;;;;0.00;0.00;;;;;4.34;83.65;100833.19;5123995;27;8846;-62
2022/01/20 10:14:13;;;;;;;;;0.00;0.00;;;;;4.49;83.45;100832.56;5125424;27;8876;-63
2022/01/20 10:16:42;;;;;;;;;0.00;0.00;;;;;4.63;82.85;100829.38;5125257;27;8846;-64
2022/01/20 10:19:10;;;;;;;;;0.20;0.00;;;;;4.76;82.93;100833.22;5124070;27;9539;-65
2022/01/20 10:21:37;;;;;;;;;0.00;0.00;;;;;4.86;82.84;100842.47;5124546;27;8861;-62
2022/01/20 10:24:05;;;;;;;;;0.00;0.00;;;;;4.85;82.83;100840.72;5126372;27;8896;-65
2022/01/20 10:26:33;;;;;;;;;0.20;0.20;;;;;4.78;82.62;100844.56;5126423;27;8871;-64
2022/01/20 10:29:01;;;;;;;;;0.40;0.00;;;;;4.66;82.49;100845.06;5126084;27;9552;-63
2022/01/20 10:31:29;;;;;;;;;0.60;0.60;;;;;4.53;82.58;100854.41;5125531;27;9195;-64
2022/01/20 10:33:56;;;;;;;;;0.00;0.00;;;;;4.42;83.32;100872.44;5125586;27;8871;-65
2022/01/20 10:36:24;;;;;;;;;0.00;0.00;;;;;4.29;83.20;100861.53;5126043;27;8945;-62
2022/01/20 10:38:52;;;;;;;;;0.00;0.00;;;;;4.20;84.03;100867.13;5124841;27;9185;-63
2022/01/20 10:41:20;;;;;;;;;0.00;0.00;;;;;4.14;84.02;100870.03;5125222;27;8866;-63
2022/01/20 10:43:47;;;;;;;;;0.00;0.00;;;;;4.16;83.75;100876.09;5125865;27;8841;-68
2022/01/20 10:46:18;;;;;;;;;0.00;0.00;;;;;4.37;83.72;100877.91;5127921;27;8912;-65
2022/01/20 10:48:46;;;;;;;;;0.00;0.00;;;;;5.14;82.58;100869.38;5125107;27;8853;-62
2022/01/20 10:51:14;;;;;;;;;0.00;0.00;;;;;5.48;81.42;100859.09;5126325;27;9213;-64
2022/01/20 10:53:42;;;;;;;;;1.00;1.00;;;;;5.36;80.99;100862.25;5124211;27;8996;-62
2022/01/20 10:56:10;;;;;;;;;3.20;1.80;;;;;5.24;81.74;100865.44;5124555;27;8865;-64
2022/01/20 10:58:37;;;;;;;;;1.00;1.00;;;;;5.37;81.54;100861.31;5126058;27;9179;-61
2022/01/20 11:01:05;;;;;;;;;0.40;0.00;;;;;5.33;81.66;100860.59;5123084;27;9562;-63
2022/01/20 11:03:35;;;;;;;;;0.00;0.00;;;;;5.22;81.43;100852.31;5124316;27;8861;-65
2022/01/20 11:06:03;;;;;;;;;2.40;1.20;;;;;5.12;81.38;100851.00;5124125;27;8857;-63
2022/01/20 11:08:31;;;;;;;;;0.20;0.20;;;;;5.12;81.78;100851.00;5124026;27;8980;-64
2022/01/20 11:11:01;;;;;;;;;0.00;0.00;;;;;5.08;81.65;100846.75;5121498;27;8850;-63
2022/01/20 11:13:29;;;;;;;;;0.00;0.00;;;;;5.01;81.52;100841.81;5122451;27;8838;-64
2022/01/20 11:15:57;;;;;;;;;0.00;0.00;;;;;5.16;81.36;100841.16;5122279;27;9647;-63
2022/01/20 11:18:24;;;;;;;;;0.00;0.00;;;;;5.53;81.05;100836.00;5121119;27;8862;-64
2022/01/20 11:20:54;;;;;;;;;1.00;1.00;;;;;5.63;80.62;100834.63;5120120;27;8978;-65
2022/01/20 11:23:22;;;;;;;;;0.00;0.00;;;;;5.46;80.13;100838.03;5120271;27;8846;-62
2022/01/20 11:25:49;;;;;;;;;0.00;0.00;;;;;5.25;80.76;100831.03;5122503;27;8887;-64
2022/01/20 11:28:17;;;;;;;;;1.00;1.00;;;;;5.11;81.12;100828.19;5121873;27;9004;-64
2022/01/20 11:30:45;;;;;;;;;0.00;0.00;;;;;4.98;81.48;100821.69;5125303;27;8837;-64
2022/01/20 11:33:12;;;;;;;;;0.00;0.00;;;;;4.91;81.07;100832.56;5122779;27;8854;-63
2022/01/20 11:38:26;;;;;;;;;0.00;0.00;;;;;4.69;81.59;100831.75;5120487;27;8849;-65
2022/01/20 11:40:53;;;;;;;;;0.00;0.00;;;;;4.60;81.60;100834.78;5121257;27;8860;-65
2022/01/20 11:43:21;;;;;;;;;1.00;1.00;;;;;4.55;81.54;100823.53;5119637;27;8838;-64
2022/01/20 11:45:51;;;;;;;;;0.00;0.00;;;;;4.55;82.29;100834.09;5122695;27;8849;-62
2022/01/20 11:48:19;;;;;;;;;0.00;0.00;;;;;4.56;81.82;100839.31;5123386;27;8861;-64
2022/01/20 11:50:46;;;;;;;;;0.00;0.00;;;;;4.53;81.63;100833.31;5104891;27;9172;-63
2022/01/20 11:53:14;;;;;;;;;0.00;0.00;;;;;4.48;82.40;100841.41;5104620;27;8849;-62
2022/01/20 11:55:42;;;;;;;;;0.00;0.00;;;;;4.46;81.88;100845.03;5101578;27;9305;-62
2022/01/20 11:58:10;;;;;;;;;0.00;0.00;;;;;4.40;81.93;100848.75;5103426;27;8884;-64
2022/01/20 12:00:38;;;;;;;;;0.00;0.00;;;;;4.38;81.72;100844.47;5099122;27;8861;-64
2022/01/20 12:03:05;;;;;;;;;0.00;0.00;;;;;4.39;81.91;100841.78;5098079;27;8861;-64
2022/01/20 12:05:35;;;;;;;;;0.00;0.00;;;;;4.43;81.53;100839.88;5097452;27;9202;-64
2022/01/20 12:08:03;;;;;;;;;0.00;0.00;;;;;4.46;81.69;100829.19;5091365;27;9530;-64
2022/01/20 12:10:31;;;;;;;;;0.00;0.00;;;;;4.45;81.75;100833.63;5091441;27;8857;-64
2022/01/20 12:12:59;;;;;;;;;0.00;0.00;;;;;4.44;81.72;100826.66;5098734;27;9526;-62
2022/01/20 12:15:26;;;;;;;;;0.00;0.00;;;;;4.41;82.03;100824.13;5114267;27;8880;-63
2022/01/20 12:17:54;;;;;;;;;0.00;0.00;;;;;4.38;81.54;100818.09;5116482;27;9202;-62
2022/01/20 12:20:22;;;;;;;;;0.40;0.40;;;;;4.34;81.51;100814.72;5114327;27;8884;-65
2022/01/20 12:22:49;;;;;;;;;0.00;0.00;;;;;4.39;81.75;100815.41;5112762;27;8833;-64
2022/01/20 12:25:17;;;;;;;;;2.20;1.00;;;;;4.49;81.74;100815.91;5115415;27;8845;-64
2022/01/20 12:27:45;;;;;;;;;0.00;0.00;;;;;4.59;81.26;100820.75;5116754;27;8861;-64
2022/01/20 12:30:13;;;;;;;;;0.00;0.00;;;;;4.64;80.74;100829.31;5113206;27;8858;-64
2022/01/20 12:32:41;;;;;;;;;0.00;0.00;;;;;4.76;80.66;100825.28;5108982;27;8872;-62
2022/01/20 12:35:09;;;;;;;;;0.60;0.20;;;;;4.94;80.69;100825.38;5114378;27;8841;-65
2022/01/20 12:37:36;;;;;;;;;0.00;0.00;;;;;5.15;79.81;100828.88;5115244;27;8829;-64
2022/01/20 12:40:07;;;;;;;;;1.00;1.00;;;;;5.26;79.54;100839.84;5113161;27;9123;-63